Terminal Aerodrome Forecast
Issued by NWS

Home | Current Version | Previous Version | Text Only | Print | Product List | Glossary On
Versions: 1 2 3 4 5 6 7 8 9 10 11 12 13
000
FTUS41 KRNK 271723
TAFBCB
TAF
KBCB 271723Z 2718/2818 30008KT P6SM VCSH SCT045
     FM272100 29007KT P6SM SCT045
     FM280000 30004KT P6SM FEW250=

USA.gov is the U.S. government's official web portal to all federal, state and local government web resources and services.